sensor_id;sensor_type;location;lat;lon;timestamp;P1;durP1;ratioP1;P2;durP2;ratioP2
8317;SDS011;4196;48.926;8.964;2023-09-30T00:01:47;2.60;;;1.53;;
8317;SDS011;4196;48.926;8.964;2023-09-30T00:04:34;3.93;;;1.73;;
8317;SDS011;4196;48.926;8.964;2023-09-30T00:07:20;4.20;;;2.10;;
8317;SDS011;4196;48.926;8.964;2023-09-30T00:10:07;1.70;;;1.60;;
8317;SDS011;4196;48.926;8.964;2023-09-30T00:12:54;3.10;;;2.07;;
8317;SDS011;4196;48.926;8.964;2023-09-30T00:15:41;2.97;;;1.60;;
8317;SDS011;4196;48.926;8.964;2023-09-30T00:18:28;4.17;;;1.93;;
8317;SDS011;4196;48.926;8.964;2023-09-30T00:21:14;3.00;;;2.10;;
8317;SDS011;4196;48.926;8.964;2023-09-30T00:24:01;3.17;;;1.87;;
8317;SDS011;4196;48.926;8.964;2023-09-30T00:26:48;2.87;;;2.00;;
8317;SDS011;4196;48.926;8.964;2023-09-30T00:29:37;2.83;;;1.80;;
8317;SDS011;4196;48.926;8.964;2023-09-30T00:32:23;3.40;;;1.90;;
8317;SDS011;4196;48.926;8.964;2023-09-30T00:35:10;3.13;;;2.20;;
8317;SDS011;4196;48.926;8.964;2023-09-30T00:37:59;2.83;;;1.83;;
8317;SDS011;4196;48.926;8.964;2023-09-30T00:40:46;3.13;;;1.90;;
8317;SDS011;4196;48.926;8.964;2023-09-30T00:43:34;3.37;;;2.00;;
8317;SDS011;4196;48.926;8.964;2023-09-30T00:46:27;3.77;;;2.20;;
8317;SDS011;4196;48.926;8.964;2023-09-30T00:49:16;2.10;;;1.90;;
8317;SDS011;4196;48.926;8.964;2023-09-30T00:52:04;5.80;;;2.13;;
8317;SDS011;4196;48.926;8.964;2023-09-30T00:54:50;5.63;;;1.93;;
8317;SDS011;4196;48.926;8.964;2023-09-30T00:57:40;3.10;;;1.90;;
8317;SDS011;4196;48.926;8.964;2023-09-30T01:00:27;3.67;;;1.83;;
8317;SDS011;4196;48.926;8.964;2023-09-30T01:03:14;4.97;;;2.50;;
8317;SDS011;4196;48.926;8.964;2023-09-30T01:06:02;2.77;;;1.80;;
8317;SDS011;4196;48.926;8.964;2023-09-30T01:08:48;2.40;;;2.07;;
8317;SDS011;4196;48.926;8.964;2023-09-30T01:11:34;4.10;;;1.83;;
8317;SDS011;4196;48.926;8.964;2023-09-30T01:14:28;4.63;;;2.07;;
8317;SDS011;4196;48.926;8.964;2023-09-30T01:17:17;2.77;;;1.83;;
8317;SDS011;4196;48.926;8.964;2023-09-30T01:20:03;2.27;;;1.77;;
8317;SDS011;4196;48.926;8.964;2023-09-30T01:22:54;3.17;;;2.30;;
8317;SDS011;4196;48.926;8.964;2023-09-30T01:25:43;2.30;;;1.70;;
8317;SDS011;4196;48.926;8.964;2023-09-30T01:28:30;3.93;;;1.80;;
8317;SDS011;4196;48.926;8.964;2023-09-30T01:31:17;5.17;;;2.07;;
8317;SDS011;4196;48.926;8.964;2023-09-30T01:34:03;3.60;;;2.53;;
8317;SDS011;4196;48.926;8.964;2023-09-30T01:36:50;4.83;;;2.67;;
8317;SDS011;4196;48.926;8.964;2023-09-30T01:39:37;5.57;;;2.53;;
8317;SDS011;4196;48.926;8.964;2023-09-30T01:42:23;3.00;;;2.00;;
8317;SDS011;4196;48.926;8.964;2023-09-30T01:45:10;4.63;;;2.20;;
8317;SDS011;4196;48.926;8.964;2023-09-30T01:47:57;3.30;;;2.23;;
8317;SDS011;4196;48.926;8.964;2023-09-30T01:50:43;5.23;;;2.50;;
8317;SDS011;4196;48.926;8.964;2023-09-30T01:53:30;4.20;;;3.13;;
8317;SDS011;4196;48.926;8.964;2023-09-30T01:56:16;2.87;;;2.10;;
8317;SDS011;4196;48.926;8.964;2023-09-30T01:59:03;6.37;;;2.50;;
8317;SDS011;4196;48.926;8.964;2023-09-30T02:01:50;3.17;;;2.30;;
8317;SDS011;4196;48.926;8.964;2023-09-30T02:04:37;3.43;;;2.50;;
8317;SDS011;4196;48.926;8.964;2023-09-30T02:07:23;4.43;;;2.43;;
8317;SDS011;4196;48.926;8.964;2023-09-30T02:10:10;4.00;;;2.30;;
8317;SDS011;4196;48.926;8.964;2023-09-30T02:12:56;5.77;;;2.97;;
8317;SDS011;4196;48.926;8.964;2023-09-30T02:15:43;3.17;;;2.33;;
8317;SDS011;4196;48.926;8.964;2023-09-30T02:18:30;6.73;;;2.83;;
8317;SDS011;4196;48.926;8.964;2023-09-30T02:21:20;4.00;;;3.30;;
8317;SDS011;4196;48.926;8.964;2023-09-30T02:24:09;5.30;;;2.93;;
8317;SDS011;4196;48.926;8.964;2023-09-30T02:26:56;11.63;;;3.60;;
8317;SDS011;4196;48.926;8.964;2023-09-30T02:29:42;5.23;;;2.97;;
8317;SDS011;4196;48.926;8.964;2023-09-30T02:32:29;5.67;;;2.70;;
8317;SDS011;4196;48.926;8.964;2023-09-30T02:35:15;5.20;;;2.77;;
8317;SDS011;4196;48.926;8.964;2023-09-30T02:38:02;5.20;;;2.87;;
8317;SDS011;4196;48.926;8.964;2023-09-30T02:40:48;4.33;;;2.57;;
8317;SDS011;4196;48.926;8.964;2023-09-30T02:43:37;4.83;;;2.80;;
8317;SDS011;4196;48.926;8.964;2023-09-30T02:46:24;3.93;;;2.43;;
8317;SDS011;4196;48.926;8.964;2023-09-30T02:49:14;5.87;;;2.47;;
8317;SDS011;4196;48.926;8.964;2023-09-30T02:52:00;3.73;;;2.60;;
8317;SDS011;4196;48.926;8.964;2023-09-30T02:54:47;5.03;;;2.50;;
8317;SDS011;4196;48.926;8.964;2023-09-30T02:57:35;4.47;;;2.60;;
8317;SDS011;4196;48.926;8.964;2023-09-30T03:00:24;3.40;;;2.53;;
8317;SDS011;4196;48.926;8.964;2023-09-30T03:03:13;4.30;;;2.43;;
8317;SDS011;4196;48.926;8.964;2023-09-30T03:06:00;5.57;;;2.80;;
8317;SDS011;4196;48.926;8.964;2023-09-30T03:08:47;5.83;;;2.40;;
8317;SDS011;4196;48.926;8.964;2023-09-30T03:11:34;5.40;;;2.77;;
8317;SDS011;4196;48.926;8.964;2023-09-30T03:14:20;4.50;;;2.43;;
8317;SDS011;4196;48.926;8.964;2023-09-30T03:17:07;3.03;;;2.47;;
8317;SDS011;4196;48.926;8.964;2023-09-30T03:20:00;5.67;;;2.73;;
8317;SDS011;4196;48.926;8.964;2023-09-30T03:22:47;5.43;;;2.77;;
8317;SDS011;4196;48.926;8.964;2023-09-30T03:25:34;7.47;;;3.13;;
8317;SDS011;4196;48.926;8.964;2023-09-30T03:28:20;5.60;;;2.60;;
8317;SDS011;4196;48.926;8.964;2023-09-30T03:31:07;3.43;;;2.70;;
8317;SDS011;4196;48.926;8.964;2023-09-30T03:33:54;5.43;;;2.87;;
8317;SDS011;4196;48.926;8.964;2023-09-30T03:36:41;3.77;;;2.47;;
8317;SDS011;4196;48.926;8.964;2023-09-30T03:39:28;7.57;;;3.50;;
8317;SDS011;4196;48.926;8.964;2023-09-30T03:42:15;5.60;;;2.80;;
8317;SDS011;4196;48.926;8.964;2023-09-30T03:45:02;4.17;;;3.30;;
8317;SDS011;4196;48.926;8.964;2023-09-30T03:47:50;4.80;;;2.73;;
8317;SDS011;4196;48.926;8.964;2023-09-30T03:50:38;7.87;;;3.17;;
8317;SDS011;4196;48.926;8.964;2023-09-30T03:53:24;4.30;;;2.87;;
8317;SDS011;4196;48.926;8.964;2023-09-30T03:56:12;3.50;;;2.87;;
8317;SDS011;4196;48.926;8.964;2023-09-30T03:58:59;8.17;;;3.20;;
8317;SDS011;4196;48.926;8.964;2023-09-30T04:01:45;3.07;;;2.70;;
8317;SDS011;4196;48.926;8.964;2023-09-30T04:04:33;8.93;;;2.77;;
8317;SDS011;4196;48.926;8.964;2023-09-30T04:07:21;4.47;;;2.80;;
8317;SDS011;4196;48.926;8.964;2023-09-30T04:10:07;3.23;;;2.60;;
8317;SDS011;4196;48.926;8.964;2023-09-30T04:12:55;6.17;;;3.77;;
8317;SDS011;4196;48.926;8.964;2023-09-30T04:15:41;6.33;;;3.63;;
8317;SDS011;4196;48.926;8.964;2023-09-30T04:18:28;3.03;;;2.70;;
8317;SDS011;4196;48.926;8.964;2023-09-30T04:21:15;3.60;;;2.47;;
8317;SDS011;4196;48.926;8.964;2023-09-30T04:24:01;4.30;;;2.73;;
8317;SDS011;4196;48.926;8.964;2023-09-30T04:26:50;3.10;;;2.70;;
8317;SDS011;4196;48.926;8.964;2023-09-30T04:29:38;4.93;;;2.83;;
8317;SDS011;4196;48.926;8.964;2023-09-30T04:32:25;4.67;;;2.63;;
8317;SDS011;4196;48.926;8.964;2023-09-30T04:35:13;6.73;;;2.97;;
8317;SDS011;4196;48.926;8.964;2023-09-30T04:38:01;6.67;;;3.30;;
8317;SDS011;4196;48.926;8.964;2023-09-30T04:40:47;6.40;;;2.90;;
8317;SDS011;4196;48.926;8.964;2023-09-30T04:43:35;4.60;;;2.87;;
8317;SDS011;4196;48.926;8.964;2023-09-30T04:46:24;3.47;;;2.70;;
8317;SDS011;4196;48.926;8.964;2023-09-30T04:49:12;9.00;;;2.90;;
8317;SDS011;4196;48.926;8.964;2023-09-30T04:52:00;6.27;;;2.77;;
8317;SDS011;4196;48.926;8.964;2023-09-30T04:54:47;6.70;;;3.20;;
8317;SDS011;4196;48.926;8.964;2023-09-30T04:57:33;10.43;;;3.17;;
8317;SDS011;4196;48.926;8.964;2023-09-30T05:00:20;8.30;;;3.17;;
8317;SDS011;4196;48.926;8.964;2023-09-30T05:03:14;8.33;;;3.27;;
8317;SDS011;4196;48.926;8.964;2023-09-30T05:06:01;5.53;;;3.30;;
8317;SDS011;4196;48.926;8.964;2023-09-30T05:08:49;11.67;;;3.13;;
8317;SDS011;4196;48.926;8.964;2023-09-30T05:11:35;8.60;;;3.10;;
8317;SDS011;4196;48.926;8.964;2023-09-30T05:14:22;4.93;;;2.83;;
8317;SDS011;4196;48.926;8.964;2023-09-30T05:17:08;6.23;;;3.13;;
8317;SDS011;4196;48.926;8.964;2023-09-30T05:19:56;6.07;;;3.00;;
8317;SDS011;4196;48.926;8.964;2023-09-30T05:22:43;8.43;;;3.03;;
8317;SDS011;4196;48.926;8.964;2023-09-30T05:25:34;13.80;;;3.60;;
8317;SDS011;4196;48.926;8.964;2023-09-30T05:28:21;4.20;;;2.90;;
8317;SDS011;4196;48.926;8.964;2023-09-30T05:31:07;6.13;;;3.00;;
8317;SDS011;4196;48.926;8.964;2023-09-30T05:33:54;8.17;;;3.30;;
8317;SDS011;4196;48.926;8.964;2023-09-30T05:36:41;5.97;;;3.67;;
8317;SDS011;4196;48.926;8.964;2023-09-30T05:39:28;10.17;;;3.23;;
8317;SDS011;4196;48.926;8.964;2023-09-30T05:42:15;5.90;;;3.07;;
8317;SDS011;4196;48.926;8.964;2023-09-30T05:45:03;5.57;;;3.20;;
8317;SDS011;4196;48.926;8.964;2023-09-30T05:47:50;5.73;;;3.30;;
8317;SDS011;4196;48.926;8.964;2023-09-30T05:50:41;5.63;;;3.23;;
8317;SDS011;4196;48.926;8.964;2023-09-30T05:53:30;5.30;;;3.57;;
8317;SDS011;4196;48.926;8.964;2023-09-30T05:56:18;5.83;;;3.13;;
8317;SDS011;4196;48.926;8.964;2023-09-30T05:59:05;4.80;;;3.10;;
8317;SDS011;4196;48.926;8.964;2023-09-30T06:01:53;5.40;;;3.60;;
8317;SDS011;4196;48.926;8.964;2023-09-30T06:04:39;6.53;;;3.53;;
8317;SDS011;4196;48.926;8.964;2023-09-30T06:07:26;6.00;;;3.40;;
8317;SDS011;4196;48.926;8.964;2023-09-30T06:10:13;7.43;;;3.23;;
8317;SDS011;4196;48.926;8.964;2023-09-30T06:13:06;10.40;;;4.30;;
8317;SDS011;4196;48.926;8.964;2023-09-30T06:15:54;3.30;;;2.67;;
8317;SDS011;4196;48.926;8.964;2023-09-30T06:18:41;5.77;;;3.23;;
8317;SDS011;4196;48.926;8.964;2023-09-30T06:21:28;4.67;;;3.30;;
8317;SDS011;4196;48.926;8.964;2023-09-30T06:24:15;5.83;;;2.73;;
8317;SDS011;4196;48.926;8.964;2023-09-30T06:27:02;6.63;;;3.00;;
8317;SDS011;4196;48.926;8.964;2023-09-30T06:29:48;11.57;;;4.93;;
8317;SDS011;4196;48.926;8.964;2023-09-30T06:32:35;5.50;;;3.37;;
8317;SDS011;4196;48.926;8.964;2023-09-30T06:35:22;4.73;;;3.27;;
8317;SDS011;4196;48.926;8.964;2023-09-30T06:38:12;5.80;;;3.23;;
8317;SDS011;4196;48.926;8.964;2023-09-30T06:40:59;5.23;;;2.97;;
8317;SDS011;4196;48.926;8.964;2023-09-30T06:43:47;4.87;;;3.30;;
8317;SDS011;4196;48.926;8.964;2023-09-30T06:46:35;6.67;;;3.17;;
8317;SDS011;4196;48.926;8.964;2023-09-30T06:49:21;7.03;;;3.57;;
8317;SDS011;4196;48.926;8.964;2023-09-30T06:52:08;9.10;;;4.47;;
8317;SDS011;4196;48.926;8.964;2023-09-30T06:54:55;3.90;;;3.10;;
8317;SDS011;4196;48.926;8.964;2023-09-30T06:57:42;7.53;;;3.60;;
8317;SDS011;4196;48.926;8.964;2023-09-30T07:00:28;5.47;;;3.30;;
8317;SDS011;4196;48.926;8.964;2023-09-30T07:03:17;4.33;;;3.07;;
8317;SDS011;4196;48.926;8.964;2023-09-30T07:06:09;6.33;;;2.83;;
8317;SDS011;4196;48.926;8.964;2023-09-30T07:08:56;6.17;;;3.27;;
8317;SDS011;4196;48.926;8.964;2023-09-30T07:11:43;3.77;;;2.63;;
8317;SDS011;4196;48.926;8.964;2023-09-30T07:14:30;5.23;;;3.17;;
8317;SDS011;4196;48.926;8.964;2023-09-30T07:17:17;5.43;;;3.37;;
8317;SDS011;4196;48.926;8.964;2023-09-30T07:20:04;5.43;;;2.90;;
8317;SDS011;4196;48.926;8.964;2023-09-30T07:22:52;5.07;;;2.93;;
8317;SDS011;4196;48.926;8.964;2023-09-30T07:25:56;6.83;;;3.63;;
8317;SDS011;4196;48.926;8.964;2023-09-30T07:28:43;7.90;;;4.10;;
8317;SDS011;4196;48.926;8.964;2023-09-30T07:31:33;5.83;;;4.30;;
8317;SDS011;4196;48.926;8.964;2023-09-30T07:34:21;8.33;;;4.23;;
8317;SDS011;4196;48.926;8.964;2023-09-30T07:37:08;9.13;;;4.03;;
8317;SDS011;4196;48.926;8.964;2023-09-30T07:39:55;6.90;;;3.90;;
8317;SDS011;4196;48.926;8.964;2023-09-30T07:42:41;8.33;;;4.00;;
8317;SDS011;4196;48.926;8.964;2023-09-30T07:45:28;4.13;;;3.20;;
8317;SDS011;4196;48.926;8.964;2023-09-30T07:48:15;19.50;;;4.00;;
8317;SDS011;4196;48.926;8.964;2023-09-30T07:51:01;7.83;;;3.77;;
8317;SDS011;4196;48.926;8.964;2023-09-30T07:53:48;7.57;;;4.27;;
8317;SDS011;4196;48.926;8.964;2023-09-30T07:56:34;6.20;;;4.20;;
8317;SDS011;4196;48.926;8.964;2023-09-30T07:59:21;8.23;;;3.77;;
8317;SDS011;4196;48.926;8.964;2023-09-30T08:02:07;16.50;;;3.93;;
8317;SDS011;4196;48.926;8.964;2023-09-30T08:04:54;9.27;;;4.17;;
8317;SDS011;4196;48.926;8.964;2023-09-30T08:07:41;7.33;;;4.60;;
8317;SDS011;4196;48.926;8.964;2023-09-30T08:10:27;7.57;;;3.73;;
8317;SDS011;4196;48.926;8.964;2023-09-30T08:13:15;7.47;;;3.37;;
8317;SDS011;4196;48.926;8.964;2023-09-30T08:16:03;7.87;;;3.60;;
8317;SDS011;4196;48.926;8.964;2023-09-30T08:18:49;5.97;;;3.60;;
8317;SDS011;4196;48.926;8.964;2023-09-30T08:21:36;7.37;;;3.37;;
8317;SDS011;4196;48.926;8.964;2023-09-30T08:24:23;6.77;;;4.00;;
8317;SDS011;4196;48.926;8.964;2023-09-30T08:27:09;7.33;;;3.37;;
8317;SDS011;4196;48.926;8.964;2023-09-30T08:29:55;7.20;;;4.17;;
8317;SDS011;4196;48.926;8.964;2023-09-30T08:32:42;7.27;;;3.07;;
8317;SDS011;4196;48.926;8.964;2023-09-30T08:35:28;5.53;;;3.17;;
8317;SDS011;4196;48.926;8.964;2023-09-30T08:38:15;6.10;;;2.57;;
8317;SDS011;4196;48.926;8.964;2023-09-30T08:41:02;6.73;;;2.80;;
8317;SDS011;4196;48.926;8.964;2023-09-30T08:43:49;6.50;;;2.93;;
8317;SDS011;4196;48.926;8.964;2023-09-30T08:46:35;6.10;;;2.60;;
8317;SDS011;4196;48.926;8.964;2023-09-30T08:49:22;6.87;;;3.17;;
8317;SDS011;4196;48.926;8.964;2023-09-30T08:52:12;8.03;;;2.50;;
8317;SDS011;4196;48.926;8.964;2023-09-30T08:55:00;5.17;;;2.70;;
8317;SDS011;4196;48.926;8.964;2023-09-30T08:57:47;9.00;;;2.80;;
8317;SDS011;4196;48.926;8.964;2023-09-30T09:00:34;7.10;;;2.97;;
8317;SDS011;4196;48.926;8.964;2023-09-30T09:03:21;4.47;;;2.70;;
8317;SDS011;4196;48.926;8.964;2023-09-30T09:06:08;6.37;;;2.70;;
8317;SDS011;4196;48.926;8.964;2023-09-30T09:08:54;8.17;;;3.00;;
8317;SDS011;4196;48.926;8.964;2023-09-30T09:11:59;5.50;;;2.87;;
8317;SDS011;4196;48.926;8.964;2023-09-30T09:14:45;3.73;;;2.60;;
8317;SDS011;4196;48.926;8.964;2023-09-30T09:17:43;5.40;;;3.17;;
8317;SDS011;4196;48.926;8.964;2023-09-30T09:20:31;5.27;;;3.10;;
8317;SDS011;4196;48.926;8.964;2023-09-30T09:23:18;4.23;;;2.80;;
8317;SDS011;4196;48.926;8.964;2023-09-30T09:26:04;11.17;;;3.03;;
8317;SDS011;4196;48.926;8.964;2023-09-30T09:28:59;4.17;;;2.97;;
8317;SDS011;4196;48.926;8.964;2023-09-30T09:31:47;7.10;;;2.90;;
8317;SDS011;4196;48.926;8.964;2023-09-30T09:34:35;4.03;;;2.67;;
8317;SDS011;4196;48.926;8.964;2023-09-30T09:37:22;4.40;;;2.53;;
8317;SDS011;4196;48.926;8.964;2023-09-30T09:40:09;4.87;;;3.00;;
8317;SDS011;4196;48.926;8.964;2023-09-30T09:43:00;4.07;;;2.70;;
8317;SDS011;4196;48.926;8.964;2023-09-30T09:45:50;4.93;;;3.20;;
8317;SDS011;4196;48.926;8.964;2023-09-30T09:48:37;7.73;;;2.83;;
8317;SDS011;4196;48.926;8.964;2023-09-30T09:51:24;4.97;;;2.67;;
8317;SDS011;4196;48.926;8.964;2023-09-30T09:54:13;6.30;;;2.80;;
8317;SDS011;4196;48.926;8.964;2023-09-30T09:57:00;4.67;;;2.80;;
8317;SDS011;4196;48.926;8.964;2023-09-30T09:59:50;8.37;;;3.80;;
8317;SDS011;4196;48.926;8.964;2023-09-30T10:02:39;4.37;;;2.43;;
8317;SDS011;4196;48.926;8.964;2023-09-30T10:05:26;8.47;;;2.90;;
8317;SDS011;4196;48.926;8.964;2023-09-30T10:08:14;4.43;;;2.57;;
8317;SDS011;4196;48.926;8.964;2023-09-30T10:11:04;4.17;;;2.03;;
8317;SDS011;4196;48.926;8.964;2023-09-30T10:13:52;6.13;;;2.33;;
8317;SDS011;4196;48.926;8.964;2023-09-30T10:16:49;3.33;;;2.30;;
8317;SDS011;4196;48.926;8.964;2023-09-30T10:19:38;3.87;;;2.60;;
8317;SDS011;4196;48.926;8.964;2023-09-30T10:23:03;3.97;;;2.30;;
8317;SDS011;4196;48.926;8.964;2023-09-30T10:28:59;5.47;;;2.50;;
8317;SDS011;4196;48.926;8.964;2023-09-30T10:31:55;4.07;;;2.40;;
8317;SDS011;4196;48.926;8.964;2023-09-30T10:34:48;4.50;;;2.50;;
8317;SDS011;4196;48.926;8.964;2023-09-30T10:37:37;4.53;;;2.17;;
8317;SDS011;4196;48.926;8.964;2023-09-30T10:40:28;4.73;;;2.63;;
8317;SDS011;4196;48.926;8.964;2023-09-30T10:46:37;3.73;;;2.33;;
8317;SDS011;4196;48.926;8.964;2023-09-30T10:52:10;4.43;;;2.43;;
8317;SDS011;4196;48.926;8.964;2023-09-30T10:55:07;5.03;;;2.80;;
8317;SDS011;4196;48.926;8.964;2023-09-30T10:57:53;5.67;;;2.83;;
8317;SDS011;4196;48.926;8.964;2023-09-30T11:00:53;5.07;;;2.63;;
8317;SDS011;4196;48.926;8.964;2023-09-30T11:03:41;4.07;;;2.33;;
8317;SDS011;4196;48.926;8.964;2023-09-30T11:06:29;5.43;;;2.63;;
8317;SDS011;4196;48.926;8.964;2023-09-30T11:09:16;5.10;;;2.73;;
8317;SDS011;4196;48.926;8.964;2023-09-30T11:12:04;5.60;;;2.97;;
8317;SDS011;4196;48.926;8.964;2023-09-30T11:15:01;5.93;;;2.60;;
8317;SDS011;4196;48.926;8.964;2023-09-30T11:17:49;5.63;;;2.60;;
8317;SDS011;4196;48.926;8.964;2023-09-30T11:20:38;6.57;;;2.77;;
8317;SDS011;4196;48.926;8.964;2023-09-30T11:23:24;7.50;;;3.57;;
8317;SDS011;4196;48.926;8.964;2023-09-30T11:26:11;5.00;;;3.10;;
8317;SDS011;4196;48.926;8.964;2023-09-30T11:29:13;4.43;;;2.63;;
8317;SDS011;4196;48.926;8.964;2023-09-30T11:32:02;5.97;;;2.97;;
8317;SDS011;4196;48.926;8.964;2023-09-30T11:34:49;5.90;;;3.37;;
8317;SDS011;4196;48.926;8.964;2023-09-30T11:37:35;6.50;;;3.20;;
8317;SDS011;4196;48.926;8.964;2023-09-30T11:40:21;6.67;;;2.90;;
8317;SDS011;4196;48.926;8.964;2023-09-30T11:43:09;6.80;;;3.10;;
8317;SDS011;4196;48.926;8.964;2023-09-30T11:46:07;6.10;;;3.17;;
8317;SDS011;4196;48.926;8.964;2023-09-30T11:48:58;5.03;;;3.30;;
8317;SDS011;4196;48.926;8.964;2023-09-30T11:51:49;7.63;;;3.60;;
8317;SDS011;4196;48.926;8.964;2023-09-30T11:54:37;3.33;;;2.80;;
8317;SDS011;4196;48.926;8.964;2023-09-30T11:57:29;6.53;;;3.23;;
8317;SDS011;4196;48.926;8.964;2023-09-30T12:00:17;6.17;;;3.13;;
8317;SDS011;4196;48.926;8.964;2023-09-30T12:03:04;6.60;;;3.30;;
8317;SDS011;4196;48.926;8.964;2023-09-30T12:05:50;7.00;;;3.27;;
8317;SDS011;4196;48.926;8.964;2023-09-30T12:08:37;7.63;;;3.80;;
8317;SDS011;4196;48.926;8.964;2023-09-30T12:11:24;10.23;;;4.13;;
8317;SDS011;4196;48.926;8.964;2023-09-30T12:14:11;7.43;;;3.83;;
8317;SDS011;4196;48.926;8.964;2023-09-30T12:16:58;6.33;;;3.20;;
8317;SDS011;4196;48.926;8.964;2023-09-30T12:19:45;8.77;;;3.30;;
8317;SDS011;4196;48.926;8.964;2023-09-30T12:22:32;6.50;;;3.50;;
8317;SDS011;4196;48.926;8.964;2023-09-30T12:25:19;6.63;;;3.07;;
8317;SDS011;4196;48.926;8.964;2023-09-30T12:28:07;7.73;;;3.03;;
8317;SDS011;4196;48.926;8.964;2023-09-30T12:30:54;7.47;;;3.33;;
8317;SDS011;4196;48.926;8.964;2023-09-30T12:33:40;5.70;;;3.37;;
8317;SDS011;4196;48.926;8.964;2023-09-30T12:36:27;4.70;;;2.97;;
8317;SDS011;4196;48.926;8.964;2023-09-30T12:39:14;6.57;;;3.83;;
8317;SDS011;4196;48.926;8.964;2023-09-30T12:42:03;4.93;;;2.83;;
8317;SDS011;4196;48.926;8.964;2023-09-30T12:44:55;6.27;;;3.07;;
8317;SDS011;4196;48.926;8.964;2023-09-30T12:47:41;5.77;;;3.07;;
8317;SDS011;4196;48.926;8.964;2023-09-30T12:50:28;3.93;;;2.70;;
8317;SDS011;4196;48.926;8.964;2023-09-30T12:53:15;7.83;;;3.20;;
8317;SDS011;4196;48.926;8.964;2023-09-30T12:56:01;6.37;;;2.53;;
8317;SDS011;4196;48.926;8.964;2023-09-30T12:58:48;7.17;;;3.53;;
8317;SDS011;4196;48.926;8.964;2023-09-30T13:01:37;7.23;;;2.70;;
8317;SDS011;4196;48.926;8.964;2023-09-30T13:04:25;4.90;;;2.77;;
8317;SDS011;4196;48.926;8.964;2023-09-30T13:07:13;6.17;;;3.33;;
8317;SDS011;4196;48.926;8.964;2023-09-30T13:10:00;6.47;;;3.37;;
8317;SDS011;4196;48.926;8.964;2023-09-30T13:12:51;6.47;;;2.77;;
8317;SDS011;4196;48.926;8.964;2023-09-30T13:15:40;7.57;;;3.20;;
8317;SDS011;4196;48.926;8.964;2023-09-30T13:18:26;6.10;;;3.47;;
8317;SDS011;4196;48.926;8.964;2023-09-30T13:21:13;7.50;;;3.30;;
8317;SDS011;4196;48.926;8.964;2023-09-30T13:23:59;7.37;;;3.13;;
8317;SDS011;4196;48.926;8.964;2023-09-30T13:26:46;6.23;;;3.40;;
8317;SDS011;4196;48.926;8.964;2023-09-30T13:29:33;7.20;;;3.73;;
8317;SDS011;4196;48.926;8.964;2023-09-30T13:32:19;6.93;;;3.17;;
8317;SDS011;4196;48.926;8.964;2023-09-30T13:35:06;6.03;;;3.47;;
8317;SDS011;4196;48.926;8.964;2023-09-30T13:37:53;6.10;;;2.70;;
8317;SDS011;4196;48.926;8.964;2023-09-30T13:40:39;6.87;;;3.20;;
8317;SDS011;4196;48.926;8.964;2023-09-30T13:43:26;8.07;;;3.60;;
8317;SDS011;4196;48.926;8.964;2023-09-30T13:46:12;7.53;;;4.03;;
8317;SDS011;4196;48.926;8.964;2023-09-30T13:48:59;6.50;;;3.10;;
8317;SDS011;4196;48.926;8.964;2023-09-30T13:51:46;4.47;;;2.63;;
8317;SDS011;4196;48.926;8.964;2023-09-30T13:54:33;6.97;;;3.13;;
8317;SDS011;4196;48.926;8.964;2023-09-30T13:57:20;6.60;;;3.20;;
8317;SDS011;4196;48.926;8.964;2023-09-30T14:00:06;5.97;;;3.40;;
8317;SDS011;4196;48.926;8.964;2023-09-30T14:02:54;6.23;;;2.67;;
8317;SDS011;4196;48.926;8.964;2023-09-30T14:05:42;5.70;;;3.07;;
8317;SDS011;4196;48.926;8.964;2023-09-30T14:08:29;6.07;;;3.17;;
8317;SDS011;4196;48.926;8.964;2023-09-30T14:11:16;5.67;;;3.27;;
8317;SDS011;4196;48.926;8.964;2023-09-30T14:14:03;7.60;;;3.37;;
8317;SDS011;4196;48.926;8.964;2023-09-30T14:16:50;6.87;;;3.20;;
8317;SDS011;4196;48.926;8.964;2023-09-30T14:19:37;4.93;;;2.60;;
8317;SDS011;4196;48.926;8.964;2023-09-30T14:22:25;6.00;;;3.20;;
8317;SDS011;4196;48.926;8.964;2023-09-30T14:25:12;7.20;;;2.73;;
8317;SDS011;4196;48.926;8.964;2023-09-30T14:27:58;6.67;;;3.40;;
8317;SDS011;4196;48.926;8.964;2023-09-30T14:30:46;6.07;;;2.97;;
8317;SDS011;4196;48.926;8.964;2023-09-30T14:33:33;5.90;;;3.27;;
8317;SDS011;4196;48.926;8.964;2023-09-30T14:36:20;5.50;;;3.43;;
8317;SDS011;4196;48.926;8.964;2023-09-30T14:39:06;7.33;;;3.93;;
8317;SDS011;4196;48.926;8.964;2023-09-30T14:42:00;10.83;;;3.10;;
8317;SDS011;4196;48.926;8.964;2023-09-30T14:44:48;10.17;;;3.57;;
8317;SDS011;4196;48.926;8.964;2023-09-30T14:47:34;5.50;;;3.07;;
8317;SDS011;4196;48.926;8.964;2023-09-30T14:50:21;6.07;;;3.37;;
8317;SDS011;4196;48.926;8.964;2023-09-30T14:53:07;7.23;;;3.30;;
8317;SDS011;4196;48.926;8.964;2023-09-30T14:55:54;6.37;;;3.47;;
8317;SDS011;4196;48.926;8.964;2023-09-30T14:58:41;6.97;;;2.90;;
8317;SDS011;4196;48.926;8.964;2023-09-30T15:01:27;5.90;;;3.27;;
8317;SDS011;4196;48.926;8.964;2023-09-30T15:04:15;6.93;;;4.30;;
8317;SDS011;4196;48.926;8.964;2023-09-30T15:07:02;7.03;;;3.70;;
8317;SDS011;4196;48.926;8.964;2023-09-30T15:09:49;5.77;;;2.97;;
8317;SDS011;4196;48.926;8.964;2023-09-30T15:12:37;7.70;;;3.87;;
8317;SDS011;4196;48.926;8.964;2023-09-30T15:15:23;6.70;;;3.50;;
8317;SDS011;4196;48.926;8.964;2023-09-30T15:18:11;6.97;;;3.80;;
8317;SDS011;4196;48.926;8.964;2023-09-30T15:20:57;6.93;;;3.63;;
8317;SDS011;4196;48.926;8.964;2023-09-30T15:23:45;6.43;;;3.57;;
8317;SDS011;4196;48.926;8.964;2023-09-30T15:26:31;6.23;;;3.77;;
8317;SDS011;4196;48.926;8.964;2023-09-30T15:29:18;6.27;;;3.13;;
8317;SDS011;4196;48.926;8.964;2023-09-30T15:32:04;8.90;;;3.53;;
8317;SDS011;4196;48.926;8.964;2023-09-30T15:34:51;7.97;;;3.63;;
8317;SDS011;4196;48.926;8.964;2023-09-30T15:37:37;6.33;;;3.30;;
8317;SDS011;4196;48.926;8.964;2023-09-30T15:40:24;7.00;;;3.30;;
8317;SDS011;4196;48.926;8.964;2023-09-30T15:43:11;6.27;;;3.50;;
8317;SDS011;4196;48.926;8.964;2023-09-30T15:45:58;7.63;;;3.43;;
8317;SDS011;4196;48.926;8.964;2023-09-30T15:48:46;6.47;;;3.50;;
8317;SDS011;4196;48.926;8.964;2023-09-30T15:51:32;6.23;;;3.70;;
8317;SDS011;4196;48.926;8.964;2023-09-30T15:54:19;5.30;;;3.30;;
8317;SDS011;4196;48.926;8.964;2023-09-30T15:57:06;5.00;;;2.73;;
8317;SDS011;4196;48.926;8.964;2023-09-30T15:59:54;6.13;;;3.43;;
8317;SDS011;4196;48.926;8.964;2023-09-30T16:02:40;7.17;;;3.63;;
8317;SDS011;4196;48.926;8.964;2023-09-30T16:05:27;6.93;;;3.43;;
8317;SDS011;4196;48.926;8.964;2023-09-30T16:08:13;7.43;;;3.13;;
8317;SDS011;4196;48.926;8.964;2023-09-30T16:11:00;8.67;;;3.53;;
8317;SDS011;4196;48.926;8.964;2023-09-30T16:13:46;7.33;;;3.13;;
8317;SDS011;4196;48.926;8.964;2023-09-30T16:16:33;6.00;;;3.27;;
8317;SDS011;4196;48.926;8.964;2023-09-30T16:19:20;7.30;;;3.60;;
8317;SDS011;4196;48.926;8.964;2023-09-30T16:22:07;7.73;;;3.70;;
8317;SDS011;4196;48.926;8.964;2023-09-30T16:24:53;6.37;;;3.20;;
8317;SDS011;4196;48.926;8.964;2023-09-30T16:27:40;5.90;;;2.93;;
8317;SDS011;4196;48.926;8.964;2023-09-30T16:30:27;6.50;;;3.60;;
8317;SDS011;4196;48.926;8.964;2023-09-30T16:33:15;7.13;;;3.53;;
8317;SDS011;4196;48.926;8.964;2023-09-30T16:36:04;6.90;;;3.13;;
8317;SDS011;4196;48.926;8.964;2023-09-30T16:38:54;5.93;;;2.90;;
8317;SDS011;4196;48.926;8.964;2023-09-30T16:41:41;9.63;;;3.60;;
8317;SDS011;4196;48.926;8.964;2023-09-30T16:44:27;6.40;;;3.53;;
8317;SDS011;4196;48.926;8.964;2023-09-30T16:47:14;8.00;;;4.37;;
8317;SDS011;4196;48.926;8.964;2023-09-30T16:50:00;11.47;;;5.67;;
8317;SDS011;4196;48.926;8.964;2023-09-30T16:52:47;5.93;;;3.23;;
8317;SDS011;4196;48.926;8.964;2023-09-30T16:55:34;8.40;;;3.93;;
8317;SDS011;4196;48.926;8.964;2023-09-30T16:58:21;8.13;;;3.70;;
8317;SDS011;4196;48.926;8.964;2023-09-30T17:01:11;10.00;;;3.87;;
8317;SDS011;4196;48.926;8.964;2023-09-30T17:03:59;8.20;;;3.87;;
8317;SDS011;4196;48.926;8.964;2023-09-30T17:06:46;11.20;;;4.37;;
8317;SDS011;4196;48.926;8.964;2023-09-30T17:09:33;17.73;;;4.00;;
8317;SDS011;4196;48.926;8.964;2023-09-30T17:12:19;8.90;;;3.60;;
8317;SDS011;4196;48.926;8.964;2023-09-30T17:15:06;10.10;;;4.40;;
8317;SDS011;4196;48.926;8.964;2023-09-30T17:17:53;12.13;;;3.93;;
8317;SDS011;4196;48.926;8.964;2023-09-30T17:20:40;10.27;;;4.17;;
8317;SDS011;4196;48.926;8.964;2023-09-30T17:23:29;8.40;;;3.97;;
8317;SDS011;4196;48.926;8.964;2023-09-30T17:26:15;7.93;;;3.27;;
8317;SDS011;4196;48.926;8.964;2023-09-30T17:29:02;10.10;;;3.43;;
8317;SDS011;4196;48.926;8.964;2023-09-30T17:31:49;5.33;;;3.30;;